Terminal Aerodrome Forecast
Issued by NWS Pocatello, ID

Home | Current Version | Previous Version | Text Only | Print | Product List | Glossary On
Versions: 1 2 3 4 5 6 7 8 9 10 11 12 13 14 15 16 17 18 19 20
548
FTUS45 KPIH 211120
TAFBYI
TAF
KBYI 211120Z 2112/2212 21015KT P6SM VCSH SCT050 BKN090
     FM212000 26018G28KT P6SM -SHRA VCTS SCT040CB BKN050
     FM220300 24012KT P6SM VCSH BKN050 BKN110=

USA.gov is the U.S. government's official web portal to all federal, state and local government web resources and services.